createdAt,value
2022-12-29T10:08:32.024Z,11.3
2022-12-29T10:13:27.012Z,11.3
2022-12-29T10:18:26.961Z,11.4
2022-12-29T10:23:27.001Z,11.4
2022-12-29T10:28:26.983Z,11.4
2022-12-29T10:33:31.052Z,11.5
2022-12-29T10:38:26.911Z,11.6
2022-12-29T10:43:26.927Z,11.6
2022-12-29T10:48:31.594Z,11.6
2022-12-29T10:53:26.909Z,11.7
2022-12-29T10:58:26.909Z,11.8
2022-12-29T11:03:26.987Z,11.8
2022-12-29T11:08:27.058Z,11.9
2022-12-29T11:13:26.969Z,11.9
2022-12-29T11:18:26.989Z,11.9
2022-12-29T11:23:26.919Z,12
2022-12-29T11:28:26.918Z,12.1
2022-12-29T11:33:26.904Z,12.1
2022-12-29T11:38:26.884Z,12.1
2022-12-29T11:43:26.893Z,12.1
2022-12-29T11:48:26.896Z,12.2
2022-12-29T11:53:26.888Z,12.2
2022-12-29T11:58:26.907Z,12.3
2022-12-29T12:03:27.062Z,12.3
2022-12-29T12:08:26.909Z,12.3
2022-12-29T12:13:26.877Z,12.3
2022-12-29T12:18:26.885Z,12.3
2022-12-29T12:23:26.893Z,12.3
2022-12-29T12:28:29.379Z,12.3
2022-12-29T12:33:26.877Z,12.3
2022-12-29T12:38:26.947Z,12.3
2022-12-29T12:43:26.883Z,12.2
2022-12-29T12:48:26.889Z,12.2
2022-12-29T12:53:26.896Z,12.2
2022-12-29T12:58:26.890Z,12.1
2022-12-29T13:03:26.929Z,12.1
2022-12-29T13:08:26.916Z,12.1
2022-12-29T13:13:26.915Z,12.1
2022-12-29T13:18:26.867Z,12.1
2022-12-29T13:23:26.895Z,12.1
2022-12-29T13:28:26.960Z,12.1
2022-12-29T13:33:26.876Z,12.1
2022-12-29T13:38:26.862Z,12.1
2022-12-29T13:43:26.860Z,12.1
2022-12-29T13:48:26.921Z,12.1
2022-12-29T13:53:26.867Z,12.1
2022-12-29T13:58:26.857Z,12.1
2022-12-29T14:03:30.426Z,12.1
2022-12-29T14:08:27.032Z,12
2022-12-29T14:13:26.884Z,12
2022-12-29T14:18:26.875Z,12
2022-12-29T14:23:26.963Z,12
2022-12-29T14:28:27.004Z,12
2022-12-29T14:33:27.028Z,12
2022-12-29T14:38:27.019Z,11.9
2022-12-29T14:43:26.963Z,11.9
2022-12-29T14:48:26.999Z,11.9
2022-12-29T14:53:26.964Z,11.9
2022-12-29T14:58:26.983Z,11.9
2022-12-29T15:03:27.055Z,11.9
2022-12-29T15:08:27.042Z,11.9
2022-12-29T15:13:26.874Z,11.9
2022-12-29T15:18:26.896Z,11.9
2022-12-29T15:23:26.869Z,11.9
2022-12-29T15:28:26.958Z,11.8
2022-12-29T15:33:26.864Z,11.8
2022-12-29T15:38:32.483Z,11.7
2022-12-29T15:43:26.904Z,11.6
2022-12-29T15:48:26.957Z,11.6
2022-12-29T15:53:27.029Z,11.6
2022-12-29T15:58:26.900Z,11.5
2022-12-29T16:03:27.030Z,11.4
2022-12-29T16:08:26.950Z,11.4
2022-12-29T16:13:26.943Z,11.4
2022-12-29T16:18:26.917Z,11.3
2022-12-29T16:23:26.896Z,11.3
2022-12-29T16:28:26.949Z,11.3
2022-12-29T16:33:26.918Z,11.2
2022-12-29T16:38:26.887Z,11.2
2022-12-29T16:43:26.884Z,11.1
2022-12-29T16:48:26.940Z,11.1
2022-12-29T16:53:26.914Z,11.1
2022-12-29T16:58:26.892Z,11.1
2022-12-29T17:03:26.932Z,11.1
2022-12-29T17:08:26.921Z,11
2022-12-29T17:13:26.907Z,11
2022-12-29T17:18:26.898Z,11
2022-12-29T17:23:26.964Z,10.9
2022-12-29T17:28:26.984Z,10.9
2022-12-29T17:33:26.904Z,10.9
2022-12-29T17:38:26.901Z,10.9
2022-12-29T17:43:30.192Z,10.9
2022-12-29T17:48:26.967Z,10.9
2022-12-29T17:53:26.974Z,10.9
2022-12-29T17:58:26.981Z,10.9
2022-12-29T18:03:27.165Z,10.9
2022-12-29T18:08:26.965Z,10.9
2022-12-29T18:13:30.824Z,10.9
2022-12-29T18:18:26.931Z,10.9
2022-12-29T18:23:26.948Z,10.9
2022-12-29T18:28:26.993Z,10.9
2022-12-29T18:33:27.043Z,10.9
2022-12-29T18:38:26.985Z,10.9
2022-12-29T18:43:26.976Z,10.9
2022-12-29T18:48:26.984Z,10.9
2022-12-29T18:53:26.969Z,10.9
2022-12-29T18:58:32.196Z,10.9
2022-12-29T19:03:27.018Z,10.9
2022-12-29T19:08:27.019Z,10.9
2022-12-29T19:13:26.973Z,10.9
2022-12-29T19:18:44.448Z,10.9
2022-12-29T19:23:26.975Z,10.9
2022-12-29T19:28:26.977Z,10.9
2022-12-29T19:33:26.965Z,10.9
2022-12-29T19:38:26.956Z,10.9
2022-12-29T19:43:26.964Z,10.9
2022-12-29T19:48:26.991Z,10.9
2022-12-29T19:53:26.958Z,10.9
2022-12-29T19:58:26.956Z,10.9
2022-12-29T20:03:27.071Z,10.9
2022-12-29T20:08:26.980Z,10.9
2022-12-29T20:13:26.977Z,10.9
2022-12-29T20:18:29.276Z,10.9
2022-12-29T20:23:26.974Z,10.9
2022-12-29T20:28:26.983Z,10.9
2022-12-29T20:33:26.964Z,10.9
2022-12-29T20:38:26.948Z,10.9
2022-12-29T20:43:26.978Z,10.9
2022-12-29T20:48:26.991Z,10.9
2022-12-29T20:53:27.005Z,10.9
2022-12-29T20:58:26.965Z,10.9
2022-12-29T21:03:27.039Z,10.9
2022-12-29T21:08:26.987Z,10.9
2022-12-29T21:13:26.982Z,10.9
2022-12-29T21:18:26.960Z,10.9
2022-12-29T21:23:26.969Z,10.9
2022-12-29T21:28:26.979Z,10.9
2022-12-29T21:33:27.007Z,10.9
2022-12-29T21:38:26.964Z,10.8
2022-12-29T21:43:26.986Z,10.8
2022-12-29T21:48:27.016Z,10.8
2022-12-29T21:53:26.983Z,10.8
2022-12-29T21:58:26.981Z,10.8
2022-12-29T22:03:27.278Z,10.8
2022-12-29T22:08:27.026Z,10.8
2022-12-29T22:13:26.976Z,10.8
2022-12-29T22:18:27.013Z,10.8
2022-12-29T22:23:26.973Z,10.8
2022-12-29T22:28:27.016Z,10.8
2022-12-29T22:33:27.018Z,10.8
2022-12-29T22:38:26.982Z,10.8
2022-12-29T22:43:26.990Z,10.8
2022-12-29T22:48:27.005Z,10.7
2022-12-29T22:53:26.989Z,10.7
2022-12-29T22:58:27.018Z,10.7
2022-12-29T23:03:27.105Z,10.7
2022-12-29T23:08:27.009Z,10.7
2022-12-29T23:13:27.004Z,10.6
2022-12-29T23:18:26.984Z,10.6
2022-12-29T23:23:27.011Z,10.6
2022-12-29T23:28:27.022Z,10.6
2022-12-29T23:33:26.996Z,10.6
2022-12-29T23:38:26.992Z,10.6
2022-12-29T23:43:26.993Z,10.6
2022-12-29T23:48:27.015Z,10.5
2022-12-29T23:53:26.996Z,10.5
2022-12-29T23:58:26.996Z,10.5
